VTSH

Songkhla Airport

Thailand
TAF VTSH 190500Z 1906/2006 25008KT 9999 SCT020 BKN100 TEMPO 1908/1914 5000 RA SCT015 BKN100 TEMPO 1914/1920 5000 RA SCT015 BKN100 TEMPO 1920/2002 5000 RA SCT015 BKN100 TEMPO 2002/2006 5000 RA SCT015 BKN100
Issued Valid From Valid To
Oct-19 @ 05:00 UTC
(4 hours ago)
Oct-19 @ 06:00 UTC
(3 hours ago)
Oct-20 @ 06:00 UTC
(in 21 hours)
Oct-19 @ 06:00 to Oct-20 @ 06:00
TAF VTSH 190500Z 1906/2006 25008KT 9999 SCT020 BKN100
Wind Visibility Clouds
250° at 8 knots 10,000+ meters
  • Scattered at 2,000' AGL
  • Broken at 10,000' AGL
Temporary Oct-19 @ 08:00 to Oct-19 @ 14:00
TEMPO 1908/1914 5000 RA SCT015 BKN100
Visibility Clouds Conditions
5,005 meters
  • Scattered at 1,500' AGL
  • Broken at 10,000' AGL
  • Rain
Temporary Oct-19 @ 14:00 to Oct-19 @ 20:00
TEMPO 1914/1920 5000 RA SCT015 BKN100
Visibility Clouds Conditions
5,005 meters
  • Scattered at 1,500' AGL
  • Broken at 10,000' AGL
  • Rain
Temporary Oct-19 @ 20:00 to Oct-20 @ 02:00
TEMPO 1920/2002 5000 RA SCT015 BKN100
Visibility Clouds Conditions
5,005 meters
  • Scattered at 1,500' AGL
  • Broken at 10,000' AGL
  • Rain
Temporary Oct-20 @ 02:00 to Oct-20 @ 06:00
TEMPO 2002/2006 5000 RA SCT015 BKN100
Visibility Clouds Conditions
5,005 meters
  • Scattered at 1,500' AGL
  • Broken at 10,000' AGL
  • Rain
TAF VTSH 190500Z 1906/2006 25008KT 9999 SCT020 BKN100 TEMPO 1908/1914 5000 RA SCT015 BKN100 TEMPO 1914/1920 5000 RA SCT015 BKN100 TEMPO 1920/2002 5000 RA SCT015 BKN100 TEMPO 2002/2006 5000 RA SCT015 BKN100
Issued Oct-19 @ 05:00 UTC
(4 hours ago)
Valid From Oct-19 @ 06:00 UTC
(3 hours ago)
Valid To Oct-20 @ 06:00 UTC
(in 21 hours)
Oct-19 @ 06:00 - Oct-20 @ 06:00
Wind Visibility
250° at 8 knots 10,000+ meters
Clouds
  • Scattered at 2,000' AGL
  • Broken at 10,000' AGL
Temporary Oct-19 @ 08:00 - Oct-19 @ 14:00
Clouds
  • Scattered at 1,500' AGL
  • Broken at 10,000' AGL
Conditions
  • Rain
Temporary Oct-19 @ 14:00 - Oct-19 @ 20:00
Clouds
  • Scattered at 1,500' AGL
  • Broken at 10,000' AGL
Conditions
  • Rain
Temporary Oct-19 @ 20:00 - Oct-20 @ 02:00
Clouds
  • Scattered at 1,500' AGL
  • Broken at 10,000' AGL
Conditions
  • Rain
Temporary Oct-20 @ 02:00 - Oct-20 @ 06:00
Clouds
  • Scattered at 1,500' AGL
  • Broken at 10,000' AGL
Conditions
  • Rain